Time;durP1;ratioP1;P1;durP2;ratioP2;P2;SDS_P1;SDS_P2;PMS_P1;PMS_P2;Temp;Humidity;BMP_temperature;BMP_pressure;BME280_temperature;BME280_humidity;BME280_pressure;Samples;Min_cycle;Max_cycle;Signal;HPM_P1;HPM_P2
2022/08/18 00:04:10;;;;;;;6.45;5.85;;;;;;;23.90;49.96;99647.44;10395136;28;20471;-77
2022/08/18 00:09:34;;;;;;;6.45;5.70;;;;;;;23.85;49.96;99650.00;10386546;28;20049;-76
2022/08/18 00:14:36;;;;;;;6.20;5.60;;;;;;;23.83;50.30;99649.38;10392921;28;20046;-75
2022/08/18 00:19:37;;;;;;;8.85;7.97;;;;;;;23.74;50.81;99656.97;10369550;28;20050;-75
2022/08/18 00:24:52;;;;;;;7.80;7.10;;;;;;;23.78;51.07;99657.34;10388062;28;20045;-75
2022/08/18 00:29:56;;;;;;;7.93;7.13;;;;;;;23.76;51.31;99664.91;10385309;28;20042;-76
2022/08/18 00:35:06;;;;;;;7.60;6.82;;;;;;;23.80;51.17;99666.94;10391386;28;20116;-77
2022/08/18 00:40:10;;;;;;;7.55;6.93;;;;;;;23.84;51.42;99670.06;10392739;28;20117;-75
2022/08/18 00:45:15;;;;;;;8.43;7.70;;;;;;;23.87;52.04;99666.94;10374141;28;20044;-76
2022/08/18 00:50:32;;;;;;;8.38;7.70;;;;;;;23.85;51.90;99669.00;10374506;28;20041;-76
2022/08/18 00:55:34;;;;;;;9.27;8.40;;;;;;;23.85;52.66;99662.72;10386314;28;20053;-77
2022/08/18 01:00:37;;;;;;;8.47;7.77;;;;;;;23.85;52.23;99674.44;10387530;28;20041;-76
2022/08/18 01:05:46;;;;;;;8.90;8.00;;;;;;;23.85;53.00;99687.19;10399995;28;20788;-76
2022/08/18 01:10:48;;;;;;;8.77;7.93;;;;;;;23.78;52.38;99687.22;10395691;28;20059;-76
2022/08/18 01:15:50;;;;;;;9.30;8.50;;;;;;;23.74;52.84;99694.19;10394096;28;20089;-76
2022/08/18 01:26:25;;;;;;;9.13;8.25;;;;;;;23.81;52.92;99705.84;10391018;28;20794;-75
2022/08/18 01:31:36;;;;;;;8.30;7.60;;;;;;;23.82;52.66;99707.47;10383629;28;20154;-76
2022/08/18 01:36:40;;;;;;;8.25;7.50;;;;;;;23.88;52.32;99714.75;10378496;28;20041;-75
2022/08/18 01:41:42;;;;;;;8.35;7.45;;;;;;;23.87;52.29;99704.97;10395223;28;20144;-76
2022/08/18 01:46:45;;;;;;;7.90;7.30;;;;;;;23.87;52.03;99695.97;10381374;28;20056;-78
2022/08/18 01:51:47;;;;;;;7.88;7.25;;;;;;;23.87;52.15;99710.41;10388583;28;20131;-78
2022/08/18 01:56:49;;;;;;;11.43;7.73;;;;;;;23.70;52.55;99684.81;10384836;28;20049;-76
2022/08/18 02:01:52;;;;;;;8.82;8.02;;;;;;;23.37;53.32;99683.22;10392108;28;20076;-75
2022/08/18 02:06:54;;;;;;;9.30;8.45;;;;;;;23.23;54.51;99688.75;10389574;28;20045;-76
2022/08/18 02:11:56;;;;;;;9.53;8.40;;;;;;;23.37;54.42;99696.81;10379940;28;20052;-77
2022/08/18 02:17:00;;;;;;;9.10;8.27;;;;;;;23.42;54.69;99713.25;10389546;28;20132;-75
2022/08/18 02:22:04;;;;;;;9.32;8.48;;;;;;;23.45;54.57;99712.84;10390002;28;20085;-74
2022/08/18 02:27:07;;;;;;;;;;;;;;;23.44;54.19;99722.03;10373073;28;20484;-74
2022/08/18 02:32:09;;;;;;;8.00;7.32;;;;;;;23.26;54.24;99704.59;10383817;28;19927;-75
2022/08/18 02:37:10;;;;;;;8.50;7.70;;;;;;;23.30;54.11;99716.69;10379170;28;20668;-74
2022/08/18 02:42:16;;;;;;;8.90;8.02;;;;;;;23.18;54.15;99702.19;10390236;28;20139;-76
2022/08/18 02:47:20;;;;;;;7.22;6.72;;;;;;;23.15;54.09;99713.47;10403944;28;20053;-75
2022/08/18 02:52:22;;;;;;;6.75;6.25;;;;;;;23.15;54.79;99705.34;10397936;28;20141;-75
2022/08/18 02:57:24;;;;;;;6.80;6.30;;;;;;;23.16;54.44;99712.41;10395061;28;20041;-75
2022/08/18 03:02:25;;;;;;;7.75;6.32;;;;;;;23.25;54.87;99705.66;10394453;28;20138;-74
2022/08/18 03:07:27;;;;;;;6.00;5.50;;;;;;;23.28;54.45;99718.81;10394719;28;20059;-75
2022/08/18 03:12:28;;;;;;;9.10;7.20;;;;;;;23.17;55.55;99714.06;10392447;28;20791;-74
2022/08/18 03:17:30;;;;;;;7.30;6.60;;;;;;;23.20;56.17;99716.34;10391688;28;20048;-76
2022/08/18 03:22:32;;;;;;;6.68;6.13;;;;;;;23.22;56.48;99707.97;10385978;28;20045;-75
2022/08/18 03:27:34;;;;;;;7.43;6.73;;;;;;;23.30;56.05;99715.88;10391463;28;20049;-74
2022/08/18 03:32:36;;;;;;;7.82;6.75;;;;;;;23.30;56.33;99705.84;10379892;28;20240;-74
2022/08/18 03:37:37;;;;;;;7.00;6.40;;;;;;;23.21;56.07;99709.88;10379579;28;20053;-75
2022/08/18 03:42:38;;;;;;;6.80;6.15;;;;;;;23.19;57.33;99703.00;10387416;28;20045;-76
2022/08/18 03:47:40;;;;;;;7.35;6.60;;;;;;;23.17;56.58;99710.53;10383898;28;20084;-76
2022/08/18 03:52:41;;;;;;;6.93;6.30;;;;;;;23.21;57.08;99712.59;10375254;28;20067;-76
2022/08/18 03:57:44;;;;;;;7.35;6.47;;;;;;;23.26;57.01;99710.03;10382723;28;20054;-75
2022/08/18 04:02:45;;;;;;;;;;;;;;;23.29;57.11;99714.22;10388385;28;20049;-75
2022/08/18 04:07:47;;;;;;;8.27;6.75;;;;;;;23.33;56.61;99710.00;10372683;28;19917;-75
2022/08/18 04:12:49;;;;;;;7.90;7.00;;;;;;;23.36;56.67;99703.28;10377759;28;20061;-75
2022/08/18 04:17:51;;;;;;;7.32;6.68;;;;;;;23.33;57.16;99693.72;10369430;28;20746;-76
2022/08/18 04:23:04;;;;;;;8.53;6.80;;;;;;;23.26;56.21;99699.19;10375261;28;20080;-75
2022/08/18 04:28:06;;;;;;;7.78;7.10;;;;;;;23.10;59.13;99702.44;10383247;28;20128;-74
2022/08/18 04:33:07;;;;;;;7.93;6.68;;;;;;;23.22;58.15;99703.38;10372920;28;20197;-74
2022/08/18 04:38:09;;;;;;;7.70;7.00;;;;;;;23.25;57.96;99702.94;10383132;28;20057;-75
2022/08/18 04:43:14;;;;;;;7.75;6.95;;;;;;;23.21;58.16;99703.59;10390038;28;20045;-76
2022/08/18 04:48:16;;;;;;;8.93;6.60;;;;;;;23.20;58.00;99705.50;10397189;28;20072;-75
2022/08/18 04:58:38;;;;;;;7.50;6.78;;;;;;;23.22;58.91;99702.56;10392874;28;20041;-75
2022/08/18 05:03:40;;;;;;;7.47;6.75;;;;;;;23.23;58.64;99710.47;10395047;28;20052;-76
2022/08/18 05:08:56;;;;;;;7.10;6.40;;;;;;;23.27;59.06;99719.84;10380724;28;20076;-75
2022/08/18 05:13:59;;;;;;;7.03;6.18;;;;;;;23.24;58.72;99725.72;10394250;28;20465;-75
2022/08/18 05:19:03;;;;;;;6.82;6.10;;;;;;;23.22;58.33;99740.56;10393068;28;20687;-76
2022/08/18 05:24:08;;;;;;;6.78;6.22;;;;;;;22.91;60.08;99751.16;10391928;28;20053;-74
2022/08/18 05:29:11;;;;;;;8.10;6.75;;;;;;;22.90;60.36;99748.66;10392365;28;20122;-75
2022/08/18 05:34:20;;;;;;;5.60;5.10;;;;;;;22.88;60.58;99756.16;10377333;28;20041;-75
2022/08/18 05:39:34;;;;;;;6.28;5.63;;;;;;;22.84;60.43;99755.78;10373818;28;20104;-73
2022/08/18 05:44:41;;;;;;;5.85;5.28;;;;;;;22.84;61.50;99750.34;10393889;28;20450;-76
2022/08/18 05:49:45;;;;;;;6.43;5.68;;;;;;;22.97;61.60;99752.19;10397697;28;20404;-75
2022/08/18 06:00:19;;;;;;;6.03;5.47;;;;;;;22.95;60.75;99746.97;10388732;28;21169;-75
2022/08/18 06:05:30;;;;;;;5.22;4.80;;;;;;;23.02;61.73;99740.66;10379677;28;20063;-74
2022/08/18 06:10:31;;;;;;;6.05;4.93;;;;;;;23.02;62.66;99737.97;10396101;28;21705;-74
2022/08/18 06:16:18;;;;;;;6.30;5.30;;;;;;;23.07;63.01;99727.25;10398470;28;20053;-74
2022/08/18 06:21:33;;;;;;;5.28;4.80;;;;;;;23.08;63.54;99718.91;10372165;28;20079;-75
2022/08/18 06:26:56;;;;;;;7.95;5.78;;;;;;;23.08;63.14;99707.22;10397869;28;20703;-75
2022/08/18 06:32:33;;;;;;;9.50;6.47;;;;;;;23.01;64.79;99706.44;10402903;28;20664;-75
2022/08/18 06:43:16;;;;;;;8.00;7.15;;;;;;;23.11;66.54;99706.81;10404419;28;20057;-75
2022/08/18 06:48:31;;;;;;;8.40;6.90;;;;;;;23.14;65.78;99728.09;10383617;28;20532;-74
2022/08/18 06:54:23;;;;;;;9.40;6.47;;;;;;;22.93;65.22;99735.47;10387369;28;20037;-73
2022/08/18 06:59:31;;;;;;;10.90;7.28;;;;;;;22.87;67.54;99739.06;10384392;28;20045;-74
2022/08/18 07:04:43;;;;;;;7.47;6.78;;;;;;;22.79;67.64;99744.75;10401720;28;20045;-76
2022/08/18 07:09:46;;;;;;;8.52;7.70;;;;;;;22.83;67.66;99758.72;10402117;28;20499;-73
2022/08/18 07:14:59;;;;;;;9.05;8.15;;;;;;;22.75;68.77;99752.47;10405485;28;20091;-74
2022/08/18 07:20:07;;;;;;;;;;;;;;;22.71;68.81;99750.41;10405069;28;20045;-77
2022/08/18 07:25:21;;;;;;;9.43;8.52;;;;;;;22.70;69.23;99765.00;10396713;28;19921;-72
2022/08/18 07:30:23;;;;;;;10.13;7.32;;;;;;;22.57;69.70;99765.91;10404991;28;20067;-76
2022/08/18 07:35:46;;;;;;;8.30;7.50;;;;;;;22.60;70.22;99779.03;10388910;28;20112;-77
2022/08/18 07:40:59;;;;;;;9.80;8.90;;;;;;;22.56;70.13;99784.06;10399998;28;20049;-74
2022/08/18 07:46:12;;;;;;;;;;;;;;;22.71;69.19;99782.97;10381253;28;20049;-74
2022/08/18 07:51:26;;;;;;;12.40;11.20;;;;;;;22.73;68.60;99803.41;10386372;28;19986;-75
2022/08/18 07:56:49;;;;;;;13.48;11.60;;;;;;;22.70;67.96;99809.28;10369132;28;20048;-74
2022/08/18 08:02:12;;;;;;;12.52;11.18;;;;;;;22.71;67.43;99820.94;10389162;28;20195;-76
2022/08/18 08:07:20;;;;;;;14.18;11.07;;;;;;;22.67;67.85;99822.41;10371808;28;20049;-75
2022/08/18 08:12:37;;;;;;;13.30;12.05;;;;;;;22.59;68.56;99824.34;10370127;28;20133;-76
2022/08/18 08:17:52;;;;;;;10.90;9.82;;;;;;;22.54;69.22;99813.28;10390313;28;20384;-73
2022/08/18 08:23:29;;;;;;;8.30;7.55;;;;;;;22.57;69.31;99825.59;10374023;28;20633;-75
2022/08/18 08:28:50;;;;;;;9.85;8.82;;;;;;;22.55;68.39;99835.81;10392578;28;20046;-75
2022/08/18 08:34:15;;;;;;;11.63;8.70;;;;;;;22.43;68.70;99835.63;10371900;28;20471;-75
2022/08/18 08:39:23;;;;;;;8.18;7.47;;;;;;;22.47;69.78;99847.69;10394053;28;20052;-75
2022/08/18 08:44:33;;;;;;;8.90;7.68;;;;;;;22.65;68.38;99846.22;10395202;28;20335;-75
2022/08/18 08:49:43;;;;;;;11.00;8.65;;;;;;;22.74;68.81;99853.06;10402231;28;20045;-77
2022/08/18 08:54:57;;;;;;;11.82;9.70;;;;;;;22.77;68.32;99850.78;10378905;28;20133;-75
2022/08/18 09:00:01;;;;;;;;;;;;;;;22.86;68.94;99845.94;10414299;28;20034;-76
2022/08/18 09:05:09;;;;;;;10.95;9.95;;;;;;;22.94;67.09;99851.13;10414340;28;19963;-73
2022/08/18 09:10:29;;;;;;;11.43;10.43;;;;;;;22.93;67.51;99849.44;10393793;28;20045;-75
2022/08/18 09:16:06;;;;;;;11.50;10.52;;;;;;;23.02;68.95;99833.75;10388549;28;20060;-74
2022/08/18 09:21:20;;;;;;;13.37;11.73;;;;;;;23.15;69.03;99838.34;10393935;28;20049;-76
2022/08/18 09:26:38;;;;;;;14.02;12.65;;;;;;;23.30;68.36;99838.88;10395083;28;20853;-75
2022/08/18 09:31:45;;;;;;;15.43;11.55;;;;;;;23.44;67.92;99830.66;10390893;28;20693;-75
2022/08/18 09:37:01;;;;;;;17.92;14.25;;;;;;;23.50;67.15;99823.53;10394760;28;20065;-74
2022/08/18 09:42:10;;;;;;;17.17;14.52;;;;;;;23.61;67.07;99820.91;10393130;28;20538;-73
2022/08/18 09:47:32;;;;;;;17.20;15.57;;;;;;;23.69;65.66;99821.72;10378231;28;20045;-74
2022/08/18 09:52:35;;;;;;;19.55;17.45;;;;;;;23.73;65.88;99829.19;10395363;28;20077;-73
2022/08/18 09:57:38;;;;;;;18.75;16.75;;;;;;;23.71;65.80;99822.34;10397701;28;20532;-73
2022/08/18 10:02:48;;;;;;;17.17;15.25;;;;;;;23.80;65.73;99818.28;10386842;28;20052;-73
2022/08/18 10:08:13;;;;;;;17.15;15.55;;;;;;;23.87;65.17;99829.97;10390407;28;20504;-74
2022/08/18 10:13:42;;;;;;;16.42;15.00;;;;;;;23.98;63.47;99839.28;10380093;28;20660;-74
2022/08/18 10:19:08;;;;;;;17.95;16.17;;;;;;;24.26;63.27;99822.53;10400499;28;20835;-74
2022/08/18 10:24:09;;;;;;;16.92;15.18;;;;;;;24.44;62.10;99829.03;10399733;28;20784;-75
2022/08/18 10:29:51;;;;;;;15.35;14.00;;;;;;;24.52;61.05;99826.03;10398501;28;20057;-74
2022/08/18 10:34:54;;;;;;;15.80;14.30;;;;;;;24.35;61.56;99836.66;10397393;28;20060;-75
2022/08/18 10:40:00;;;;;;;17.23;15.43;;;;;;;24.27;60.92;99845.09;10377651;28;20080;-73
2022/08/18 10:45:13;;;;;;;16.38;14.93;;;;;;;24.22;62.38;99845.78;10407313;28;20651;-73
2022/08/18 10:50:27;;;;;;;14.98;13.77;;;;;;;24.30;62.03;99842.75;10395138;28;20055;-74
2022/08/18 10:55:46;;;;;;;14.82;13.43;;;;;;;24.29;60.84;99849.28;10404776;28;20548;-74
2022/08/18 11:01:06;;;;;;;14.43;13.23;;;;;;;24.39;61.09;99842.47;10382416;28;20052;-74
2022/08/18 11:06:13;;;;;;;14.32;13.10;;;;;;;24.09;60.21;99832.31;10396018;28;20528;-73
2022/08/18 11:11:41;;;;;;;13.85;12.63;;;;;;;24.13;61.26;99826.19;10382731;28;20574;-75
2022/08/18 11:17:02;;;;;;;15.05;13.70;;;;;;;24.08;60.42;99814.31;10362139;28;20061;-77
2022/08/18 11:22:24;;;;;;;14.07;12.80;;;;;;;24.23;60.82;99809.38;10409461;28;20206;-76
2022/08/18 11:27:47;;;;;;;14.75;13.35;;;;;;;24.32;60.44;99821.63;10393394;28;20451;-76
2022/08/18 11:32:49;;;;;;;;;;;;;;;24.56;59.91;99810.91;10397617;28;20056;-76
2022/08/18 11:37:56;;;;;;;14.18;12.55;;;;;;;25.00;57.86;99784.44;10402956;28;20019;-74
2022/08/18 11:43:31;;;;;;;13.52;12.23;;;;;;;25.91;55.41;99745.34;10396745;28;20052;-73
2022/08/18 11:48:47;;;;;;;13.00;11.93;;;;;;;27.35;51.12;99726.47;10395819;28;20053;-74
2022/08/18 11:54:20;;;;;;;15.13;13.77;;;;;;;28.19;48.54;99742.03;10381713;28;20406;-73
2022/08/18 11:59:24;;;;;;;13.60;12.40;;;;;;;29.09;47.21;99758.19;10398140;28;20693;-74
2022/08/18 12:04:51;;;;;;;13.80;12.63;;;;;;;29.28;45.93;99741.41;10380099;28;20106;-75
2022/08/18 12:10:17;;;;;;;10.82;9.93;;;;;;;29.85;42.60;99745.47;10391843;28;20060;-76
2022/08/18 12:15:30;;;;;;;10.63;9.85;;;;;;;30.41;42.49;99727.69;10393752;28;20738;-75
2022/08/18 12:20:51;;;;;;;11.68;10.65;;;;;;;30.60;40.45;99715.13;10391056;28;20053;-76
2022/08/18 12:25:53;;;;;;;9.70;8.85;;;;;;;29.69;41.78;99711.56;10383238;28;20125;-75
2022/08/18 12:30:54;;;;;;;;;;;;;;;29.69;41.30;99719.78;10374883;28;20064;-76
2022/08/18 12:35:58;;;;;;;9.57;8.68;;;;;;;29.70;41.86;99715.16;10397516;28;19919;-76
2022/08/18 12:41:00;;;;;;;11.32;9.10;;;;;;;30.29;41.05;99714.97;10378608;28;20118;-76
2022/08/18 12:46:03;;;;;;;9.18;8.45;;;;;;;30.42;38.91;99715.63;10384414;28;20098;-76
2022/08/18 12:51:08;;;;;;;9.68;8.70;;;;;;;30.30;39.67;99707.56;10385549;28;20080;-76
2022/08/18 12:56:22;;;;;;;9.68;8.95;;;;;;;30.13;41.52;99694.88;10389914;28;20053;-73
2022/08/18 13:01:25;;;;;;;9.80;8.85;;;;;;;30.47;40.45;99701.91;10379053;28;20048;-75
2022/08/18 13:06:35;;;;;;;11.63;9.82;;;;;;;30.40;40.47;99698.53;10404613;28;20491;-74
2022/08/18 13:11:36;;;;;;;10.05;9.15;;;;;;;30.51;39.70;99697.53;10382843;28;20044;-74
2022/08/18 13:16:41;;;;;;;9.52;8.82;;;;;;;30.59;39.59;99688.75;10407861;28;20049;-75
2022/08/18 13:21:55;;;;;;;11.02;10.13;;;;;;;30.33;39.42;99679.59;10401288;28;20135;-75
2022/08/18 13:26:57;;;;;;;9.25;8.55;;;;;;;30.51;39.82;99675.56;10399585;28;20053;-74
2022/08/18 13:31:59;;;;;;;9.27;8.43;;;;;;;30.74;38.34;99654.19;10402778;28;20052;-75
2022/08/18 13:37:00;;;;;;;9.18;8.32;;;;;;;30.18;39.42;99661.13;10401673;28;20053;-74
2022/08/18 13:42:03;;;;;;;8.38;7.68;;;;;;;30.43;39.21;99673.31;10404555;28;20431;-75
2022/08/18 13:47:30;;;;;;;10.07;9.38;;;;;;;30.59;38.70;99666.78;10382692;28;20049;-75
2022/08/18 13:52:39;;;;;;;10.55;9.75;;;;;;;30.65;39.45;99651.97;10407533;28;20516;-74
2022/08/18 13:57:50;;;;;;;9.57;8.88;;;;;;;30.43;39.06;99640.38;10409619;28;20041;-76
2022/08/18 14:02:55;;;;;;;9.63;8.82;;;;;;;30.67;38.64;99655.28;10386688;28;20090;-74
2022/08/18 14:07:57;;;;;;;9.63;8.63;;;;;;;30.09;37.82;99647.09;10406172;28;20386;-74
2022/08/18 14:13:00;;;;;;;7.28;6.68;;;;;;;30.04;37.41;99632.53;10386004;28;20059;-74
2022/08/18 14:18:25;;;;;;;6.90;6.30;;;;;;;30.11;37.55;99638.59;10389997;28;20056;-75
2022/08/18 14:28:54;;;;;;;7.55;7.05;;;;;;;30.24;37.92;99635.34;10404344;28;20304;-73
2022/08/18 14:33:55;;;;;;;7.82;7.18;;;;;;;30.28;38.05;99622.75;10410485;28;20503;-76
2022/08/18 14:39:04;;;;;;;7.75;7.03;;;;;;;30.34;37.54;99615.34;10433146;28;20099;-76
2022/08/18 14:44:12;;;;;;;7.70;6.95;;;;;;;30.13;37.05;99608.97;10433307;28;20055;-75
2022/08/18 14:49:17;;;;;;;8.07;6.40;;;;;;;29.84;37.14;99617.63;10443420;28;20101;-77
2022/08/18 14:54:30;;;;;;;6.95;6.35;;;;;;;29.71;37.34;99612.59;10459939;28;20043;-76
2022/08/18 14:59:32;;;;;;;7.18;6.57;;;;;;;29.66;37.57;99605.16;10454886;28;20045;-74
2022/08/18 15:04:38;;;;;;;7.30;6.70;;;;;;;29.70;38.12;99602.72;10448301;28;20056;-75
2022/08/18 15:09:58;;;;;;;7.95;7.22;;;;;;;29.52;38.95;99609.47;10430650;28;20703;-74
2022/08/18 15:15:19;;;;;;;7.80;7.20;;;;;;;29.25;39.14;99611.22;10414068;28;20384;-74
2022/08/18 15:20:26;;;;;;;8.52;7.88;;;;;;;29.17;39.72;99613.56;10406551;28;20053;-74
2022/08/18 15:25:43;;;;;;;8.80;8.00;;;;;;;29.04;39.12;99614.84;10404507;28;20193;-75
2022/08/18 15:30:47;;;;;;;8.18;7.57;;;;;;;28.76;40.01;99608.56;10441105;28;20045;-76
2022/08/18 15:35:53;;;;;;;8.65;7.78;;;;;;;28.50;40.40;99613.78;10448549;28;20095;-75
2022/08/18 15:40:58;;;;;;;8.15;7.55;;;;;;;28.31;40.18;99615.19;10439634;28;20091;-75
2022/08/18 15:46:06;;;;;;;7.77;7.07;;;;;;;27.93;40.76;99616.91;10441812;28;20108;-76
2022/08/18 15:51:09;;;;;;;8.68;7.93;;;;;;;27.86;41.52;99614.34;10433589;28;20049;-76
2022/08/18 15:56:18;;;;;;;8.70;8.00;;;;;;;27.76;41.44;99620.53;10428993;28;20070;-75
2022/08/18 16:01:23;;;;;;;8.50;7.80;;;;;;;27.69;41.61;99617.13;10427749;28;20057;-74
2022/08/18 16:06:33;;;;;;;9.10;8.40;;;;;;;27.71;41.37;99606.78;10401942;28;20048;-74
2022/08/18 16:11:36;;;;;;;8.90;8.10;;;;;;;27.81;41.44;99593.25;10394202;28;20621;-73
2022/08/18 16:16:37;;;;;;;8.15;7.65;;;;;;;27.79;41.41;99600.88;10371511;28;20037;-73
2022/08/18 16:21:38;;;;;;;7.40;6.80;;;;;;;27.75;41.36;99599.72;10386167;28;20083;-75
2022/08/18 16:26:40;;;;;;;7.20;6.60;;;;;;;27.65;41.20;99586.75;10386956;28;20568;-75
2022/08/18 16:31:41;;;;;;;7.30;6.55;;;;;;;27.49;40.88;99580.25;10387116;28;20390;-73
2022/08/18 16:36:43;;;;;;;7.05;6.55;;;;;;;27.50;41.42;99595.56;10377575;28;20633;-74
2022/08/18 16:41:45;;;;;;;6.65;5.97;;;;;;;27.45;40.98;99584.53;10392405;28;20080;-73
2022/08/18 16:46:46;;;;;;;5.63;5.13;;;;;;;27.30;41.04;99592.50;10395035;28;20120;-72
2022/08/18 16:51:48;;;;;;;7.55;5.40;;;;;;;27.24;41.44;99598.97;10382106;28;20691;-73
2022/08/18 16:56:49;;;;;;;7.72;7.03;;;;;;;27.09;42.04;99599.53;10368151;28;20060;-75
2022/08/18 17:07:11;;;;;;;9.82;8.95;;;;;;;26.93;43.30;99598.47;10387999;28;20071;-77
2022/08/18 17:12:12;;;;;;;9.48;8.68;;;;;;;26.84;43.75;99605.41;10384600;28;20239;-75
2022/08/18 17:17:16;;;;;;;9.57;8.60;;;;;;;26.71;43.80;99601.91;10385757;28;20444;-72
2022/08/18 17:22:19;;;;;;;9.93;9.13;;;;;;;26.64;44.41;99609.41;10395184;28;20499;-76
2022/08/18 17:27:28;;;;;;;9.57;8.73;;;;;;;26.52;44.55;99605.91;10403942;28;20079;-75
2022/08/18 17:32:40;;;;;;;10.23;9.25;;;;;;;26.48;45.59;99618.38;10385853;28;20088;-73
2022/08/18 17:37:53;;;;;;;9.55;8.75;;;;;;;26.37;45.61;99615.44;10399639;28;20052;-74
2022/08/18 17:42:58;;;;;;;11.82;10.63;;;;;;;26.28;45.89;99619.63;10402910;28;20057;-74
2022/08/18 17:48:15;;;;;;;10.43;9.18;;;;;;;26.19;46.33;99626.53;10395200;28;20136;-76
2022/08/18 17:53:17;;;;;;;11.80;10.85;;;;;;;26.11;46.95;99625.84;10399134;28;20053;-74
2022/08/18 17:58:43;;;;;;;11.80;10.95;;;;;;;25.96;47.45;99628.25;10396222;28;20052;-74
2022/08/18 18:03:44;;;;;;;11.25;10.32;;;;;;;25.92;47.66;99629.78;10392596;28;20048;-74
2022/08/18 18:08:59;;;;;;;11.18;10.27;;;;;;;25.88;47.65;99626.72;10390692;28;20071;-76
2022/08/18 18:14:22;;;;;;;11.77;10.77;;;;;;;25.72;48.30;99628.25;10400094;28;20403;-75
2022/08/18 18:19:32;;;;;;;12.05;11.00;;;;;;;25.64;48.20;99631.38;10378480;28;20732;-75
2022/08/18 18:24:36;;;;;;;12.30;11.20;;;;;;;25.59;49.11;99628.50;10392550;28;20267;-76
2022/08/18 18:29:38;;;;;;;12.57;11.57;;;;;;;25.58;49.12;99638.59;10393888;28;20045;-74
2022/08/18 18:34:44;;;;;;;12.95;11.95;;;;;;;25.51;49.87;99637.88;10384942;28;20055;-75
2022/08/18 18:39:54;;;;;;;12.00;11.00;;;;;;;25.48;50.67;99637.53;10364093;28;20052;-75
2022/08/18 18:45:01;;;;;;;12.50;11.50;;;;;;;25.52;50.56;99644.13;10368259;28;20049;-73
2022/08/18 18:50:11;;;;;;;13.85;12.75;;;;;;;25.44;50.96;99642.59;10394041;28;20074;-74
2022/08/18 18:55:20;;;;;;;13.77;12.60;;;;;;;25.33;52.10;99635.28;10383551;28;20055;-73
2022/08/18 19:00:30;;;;;;;12.82;11.80;;;;;;;25.26;51.88;99650.84;10376221;28;20634;-72
2022/08/18 19:05:38;;;;;;;13.18;12.07;;;;;;;24.96;53.65;99649.84;10359755;28;20078;-74
2022/08/18 19:11:04;;;;;;;12.07;11.07;;;;;;;24.95;54.72;99661.81;10382734;28;20277;-74
2022/08/18 19:16:16;;;;;;;13.10;11.98;;;;;;;24.96;54.42;99663.44;10384725;28;20049;-72
2022/08/18 19:21:26;;;;;;;11.30;10.40;;;;;;;24.95;54.18;99656.38;10387302;28;20073;-74
2022/08/18 19:26:49;;;;;;;;;;;;;;;24.87;54.92;99662.13;10380178;28;20782;-74
2022/08/18 19:32:03;;;;;;;11.70;10.68;;;;;;;24.80;54.76;99672.28;10375469;28;19928;-74
2022/08/18 19:37:35;;;;;;;12.52;11.45;;;;;;;24.82;55.43;99675.63;10369336;28;20048;-72
2022/08/18 19:43:11;;;;;;;13.10;11.95;;;;;;;24.72;56.39;99678.06;10368620;28;20539;-74
2022/08/18 19:48:40;;;;;;;12.75;11.68;;;;;;;24.74;56.18;99682.22;10378705;28;20080;-74
2022/08/18 19:54:09;;;;;;;12.23;11.18;;;;;;;24.72;56.42;99680.78;10369758;28;20056;-74
2022/08/18 19:59:30;;;;;;;12.35;11.32;;;;;;;24.57;56.62;99673.81;10359468;28;20403;-73
2022/08/18 20:04:58;;;;;;;12.18;10.98;;;;;;;24.52;57.50;99677.22;10390623;28;20085;-74
2022/08/18 20:10:02;;;;;;;12.75;11.55;;;;;;;24.58;57.14;99664.63;10389883;28;20063;-73
2022/08/18 20:15:12;;;;;;;10.57;9.70;;;;;;;24.54;54.15;99666.13;10371842;28;20067;-76
2022/08/18 20:20:17;;;;;;;12.70;11.67;;;;;;;24.51;55.89;99661.13;10384553;28;20037;-74
2022/08/18 20:25:24;;;;;;;13.10;11.80;;;;;;;24.50;56.29;99660.31;10374260;28;20069;-75
2022/08/18 20:30:49;;;;;;;12.82;11.60;;;;;;;24.48;56.74;99661.59;10390626;28;20043;-73
2022/08/18 20:36:05;;;;;;;12.32;11.23;;;;;;;24.48;57.74;99658.88;10390367;28;20053;-74
2022/08/18 20:41:25;;;;;;;13.38;12.18;;;;;;;24.42;57.61;99666.06;10391775;28;20057;-72
2022/08/18 20:46:52;;;;;;;12.90;11.70;;;;;;;24.38;57.27;99661.31;10379525;28;20045;-73
2022/08/18 20:52:02;;;;;;;12.45;11.32;;;;;;;24.33;57.28;99665.53;10359291;28;20053;-73
2022/08/18 20:57:09;;;;;;;13.35;12.25;;;;;;;24.30;57.04;99673.34;10381609;28;20046;-75
2022/08/18 21:02:39;;;;;;;13.05;11.90;;;;;;;24.28;57.30;99676.28;10391825;28;20136;-74
2022/08/18 21:08:01;;;;;;;12.70;11.55;;;;;;;24.28;57.26;99681.72;10390289;28;20053;-73
2022/08/18 21:13:04;;;;;;;13.15;11.95;;;;;;;24.18;57.18;99673.25;10387787;28;20133;-73
2022/08/18 21:18:17;;;;;;;13.65;12.48;;;;;;;24.04;56.87;99671.75;10372697;28;20103;-72
2022/08/18 21:23:28;;;;;;;13.15;11.95;;;;;;;24.03;57.32;99673.63;10395370;28;20072;-75
2022/08/18 21:28:33;;;;;;;13.02;11.90;;;;;;;24.03;56.60;99675.53;10395502;28;20046;-74
2022/08/18 21:33:35;;;;;;;12.32;11.25;;;;;;;23.91;56.80;99659.97;10379576;28;20053;-75
2022/08/18 21:38:37;;;;;;;12.50;11.38;;;;;;;23.90;56.62;99652.88;10390792;28;20145;-75
2022/08/18 21:43:46;;;;;;;12.47;11.47;;;;;;;23.90;57.19;99652.88;10383151;28;20052;-74
2022/08/18 21:48:52;;;;;;;13.52;12.20;;;;;;;23.81;58.01;99651.50;10396506;28;20056;-74
2022/08/18 21:53:54;;;;;;;12.80;11.65;;;;;;;23.77;57.37;99647.56;10398788;28;20055;-74
2022/08/18 21:59:13;;;;;;;11.93;10.93;;;;;;;23.67;59.58;99663.53;10395528;28;20052;-73
2022/08/18 22:04:23;;;;;;;12.45;11.35;;;;;;;23.67;59.78;99672.50;10395324;28;20049;-75
2022/08/18 22:14:47;;;;;;;13.15;12.05;;;;;;;23.58;60.01;99676.56;10394036;28;20042;-74
2022/08/18 22:20:34;;;;;;;12.45;11.38;;;;;;;23.54;59.84;99689.78;10392265;28;20114;-75
2022/08/18 22:25:36;;;;;;;12.35;11.35;;;;;;;23.59;59.67;99699.97;10387080;28;20052;-75
2022/08/18 22:30:37;;;;;;;13.70;12.35;;;;;;;23.59;59.20;99703.50;10393513;28;20071;-74
2022/08/18 22:35:39;;;;;;;13.43;12.25;;;;;;;23.38;60.42;99706.63;10377931;28;20051;-74
2022/08/18 22:40:40;;;;;;;13.05;11.77;;;;;;;23.43;60.60;99714.94;10387197;28;20769;-73
2022/08/18 22:45:41;;;;;;;13.05;11.95;;;;;;;23.42;59.80;99716.81;10374819;28;20059;-74
2022/08/18 22:50:45;;;;;;;13.48;12.35;;;;;;;23.50;59.04;99732.00;10373410;28;20196;-73
2022/08/18 22:55:46;;;;;;;13.00;11.73;;;;;;;23.52;58.89;99739.94;10388768;28;20052;-71
2022/08/18 23:00:48;;;;;;;12.70;11.50;;;;;;;23.55;58.87;99742.22;10388608;28;20049;-73
2022/08/18 23:05:49;;;;;;;13.00;11.77;;;;;;;23.54;59.75;99741.38;10390559;28;20057;-72
2022/08/18 23:10:50;;;;;;;12.55;11.43;;;;;;;23.51;58.32;99741.84;10389439;28;20048;-72
2022/08/18 23:15:53;;;;;;;13.05;11.80;;;;;;;23.52;58.22;99735.31;10364764;28;20046;-72
2022/08/18 23:21:13;;;;;;;13.13;11.80;;;;;;;23.44;59.19;99728.28;10388141;28;20061;-74
2022/08/18 23:26:35;;;;;;;12.05;11.05;;;;;;;23.48;58.61;99734.13;10392084;28;20056;-74
2022/08/18 23:31:38;;;;;;;13.15;11.95;;;;;;;23.46;58.31;99738.94;10387181;28;20133;-74
2022/08/18 23:36:40;;;;;;;12.02;10.95;;;;;;;23.42;58.47;99724.13;10389502;28;20044;-73
2022/08/18 23:41:46;;;;;;;12.35;11.25;;;;;;;23.42;58.41;99713.25;10374613;28;20080;-74
2022/08/18 23:46:49;;;;;;;11.95;10.85;;;;;;;23.44;58.93;99717.41;10374125;28;20049;-73
2022/08/18 23:51:53;;;;;;;11.77;10.55;;;;;;;23.37;58.48;99722.06;10387305;28;20072;-75
2022/08/18 23:56:55;;;;;;;12.65;11.50;;;;;;;23.32;58.09;99729.22;10388675;28;20694;-74
